createdAt,value
2018-09-12T00:00:09.809Z,15.27
2018-09-12T00:02:54.715Z,15.19
2018-09-12T00:03:32.585Z,15.17
2018-09-12T00:12:06.213Z,14.73
2018-09-12T00:14:14.343Z,14.61
2018-09-12T00:15:14.907Z,14.58
2018-09-12T00:16:14.491Z,14.55
2018-09-12T00:17:13.362Z,14.57
2018-09-12T00:18:37.870Z,14.47
2018-09-12T00:21:50.138Z,14.43
2018-09-12T00:23:05.908Z,14.28
2018-09-12T00:27:50.910Z,14.21
2018-09-12T00:29:03.224Z,14.21
2018-09-12T00:30:04.237Z,14.22
2018-09-12T00:31:08.441Z,14.25
2018-09-12T00:37:01.967Z,14.24
2018-09-12T00:44:10.620Z,14.64
2018-09-12T01:24:49.736Z,16.23
2018-09-12T01:24:54.169Z,16.14
2018-09-12T01:26:35.048Z,16.15
2018-09-12T01:27:09.639Z,16.08
2018-09-12T01:30:42.526Z,16.09
2018-09-12T01:38:39.877Z,15.62
2018-09-12T01:59:32.626Z,14.57
2018-09-12T02:00:22.947Z,14.37
2018-09-12T02:01:23.275Z,14.42
2018-09-12T02:02:23.614Z,14.39
2018-09-12T02:07:54.649Z,14.17
2018-09-12T02:09:51.992Z,13.97
2018-09-12T02:15:43.766Z,13.82
2018-09-12T02:16:44.615Z,13.79
2018-09-12T02:38:21.679Z,13.12
2018-09-12T02:40:38.525Z,13.08
2018-09-12T02:53:58.762Z,12.86
2018-09-12T02:54:33.890Z,12.95
2018-09-12T02:55:34.792Z,12.92
2018-09-12T04:02:09.749Z,12.17
2018-09-12T04:02:18.659Z,12.10
2018-09-12T04:12:13.649Z,12.02
2018-09-12T04:13:13.628Z,11.96
2018-09-12T04:14:13.879Z,11.98
2018-09-12T04:15:13.480Z,12.07
2018-09-12T04:16:13.372Z,11.90
2018-09-12T04:17:13.495Z,11.96
2018-09-12T04:19:52.795Z,11.85
2018-09-12T04:20:26.881Z,11.83
2018-09-12T04:21:25.806Z,11.85
2018-09-12T04:22:25.805Z,11.78
2018-09-12T04:23:25.766Z,11.78
2018-09-12T04:24:25.890Z,11.72
2018-09-12T04:25:25.803Z,11.75
2018-09-12T04:26:26.783Z,11.78
2018-09-12T04:27:25.784Z,11.73
2018-09-12T04:28:25.746Z,11.69
2018-09-12T04:29:25.868Z,11.76
2018-09-12T04:30:26.709Z,11.78
2018-09-12T04:31:25.757Z,11.72
2018-09-12T04:32:26.463Z,11.73
2018-09-12T04:33:46.694Z,11.70
2018-09-12T04:34:25.773Z,11.64
2018-09-12T04:35:26.830Z,11.62
2018-09-12T04:36:26.633Z,11.62
2018-09-12T04:37:25.671Z,11.65
2018-09-12T04:38:25.643Z,11.67
2018-09-12T04:39:25.660Z,11.62
2018-09-12T04:40:25.616Z,11.62
2018-09-12T04:41:25.565Z,11.58
2018-09-12T04:42:25.569Z,11.61
2018-09-12T04:43:25.572Z,11.60
2018-09-12T04:44:25.535Z,11.62
2018-09-12T04:45:25.584Z,11.55
2018-09-12T04:46:25.996Z,11.54
2018-09-12T04:47:25.566Z,11.52
2018-09-12T04:54:20.670Z,11.55
2018-09-12T04:55:20.673Z,11.49
2018-09-12T04:56:29.338Z,11.58
2018-09-12T04:57:20.738Z,11.61
2018-09-12T04:58:20.599Z,11.61
2018-09-12T04:59:20.676Z,11.60
2018-09-12T05:00:20.532Z,11.55
2018-09-12T05:01:20.540Z,11.58
2018-09-12T05:02:20.468Z,11.62
2018-09-12T05:03:20.468Z,11.62
2018-09-12T05:04:20.509Z,11.73
2018-09-12T05:05:20.450Z,11.61
2018-09-12T05:06:20.433Z,11.72
2018-09-12T05:07:20.446Z,11.67
2018-09-12T05:08:20.402Z,11.79
2018-09-12T05:09:20.419Z,11.82
2018-09-12T05:10:20.464Z,11.85
2018-09-12T05:11:20.388Z,11.85
2018-09-12T05:12:20.360Z,11.95
2018-09-12T05:13:20.371Z,11.94
2018-09-12T05:14:20.333Z,12.02
2018-09-12T05:15:20.318Z,11.95
2018-09-12T05:16:20.779Z,11.99
2018-09-12T05:17:20.326Z,12.09
2018-09-12T05:18:20.319Z,12.13
2018-09-12T05:19:20.309Z,12.12
2018-09-12T05:20:20.261Z,12.19
2018-09-12T05:21:20.331Z,12.13
2018-09-12T05:22:21.287Z,12.12
2018-09-12T05:23:20.242Z,12.19
2018-09-12T05:24:20.216Z,12.19
2018-09-12T05:25:20.242Z,12.20
2018-09-12T05:26:20.214Z,12.21
2018-09-12T05:27:21.234Z,12.32
2018-09-12T05:28:20.195Z,12.28
2018-09-12T05:29:20.181Z,12.31
2018-09-12T05:30:20.201Z,12.39
2018-09-12T05:31:20.157Z,12.41
2018-09-12T05:32:20.136Z,12.45
2018-09-12T05:33:20.193Z,12.41
2018-09-12T05:34:20.114Z,12.54
2018-09-12T05:35:21.106Z,12.54
2018-09-12T05:36:20.217Z,12.53
2018-09-12T05:37:20.097Z,12.56
2018-09-12T05:38:20.091Z,12.57
2018-09-12T05:39:20.080Z,12.65
2018-09-12T05:40:20.039Z,12.67
2018-09-12T05:41:20.106Z,12.70
2018-09-12T05:42:20.015Z,12.79
2018-09-12T05:43:20.040Z,12.78
2018-09-12T05:44:19.998Z,12.85
2018-09-12T05:45:20.007Z,12.82
2018-09-12T05:46:19.990Z,12.86
2018-09-12T05:47:19.955Z,12.92
2018-09-12T05:48:19.983Z,12.89
2018-09-12T05:49:19.948Z,13.01
2018-09-12T05:50:20.067Z,13.03
2018-09-12T05:51:19.898Z,12.97
2018-09-12T05:52:19.973Z,13.10
2018-09-12T05:53:19.995Z,13.14
2018-09-12T05:54:19.856Z,13.11
2018-09-12T05:55:19.931Z,13.10
2018-09-12T05:56:20.906Z,13.28
2018-09-12T05:57:19.847Z,13.28
2018-09-12T05:58:19.835Z,13.36
2018-09-12T05:59:19.863Z,13.33
2018-09-12T06:00:19.852Z,13.38
2018-09-12T06:01:19.782Z,13.49
2018-09-12T06:02:20.840Z,13.49
2018-09-12T06:03:19.828Z,13.57
2018-09-12T06:04:19.836Z,13.67
2018-09-12T06:05:19.776Z,13.66
2018-09-12T06:06:19.728Z,13.78
2018-09-12T06:07:19.837Z,13.89
2018-09-12T06:08:19.774Z,13.88
2018-09-12T06:09:19.742Z,13.95
2018-09-12T06:10:19.686Z,13.96
2018-09-12T06:11:19.690Z,14.03
2018-09-12T06:12:19.708Z,14.04
2018-09-12T06:13:19.670Z,14.14
2018-09-12T06:14:19.666Z,14.21
2018-09-12T06:15:19.628Z,14.29
2018-09-12T06:16:19.637Z,14.25
2018-09-12T06:17:19.643Z,14.60
2018-09-12T06:18:19.627Z,15.27
2018-09-12T06:19:19.663Z,16.25
2018-09-12T06:20:19.576Z,17.46
2018-09-12T06:21:19.604Z,18.41
2018-09-12T06:22:36.702Z,19.32
2018-09-12T06:23:19.684Z,20.10
2018-09-12T06:24:19.837Z,20.91
2018-09-12T06:25:19.610Z,21.50
2018-09-12T06:26:19.688Z,22.25
2018-09-12T06:27:19.565Z,22.88
2018-09-12T06:28:19.542Z,23.61
2018-09-12T06:29:19.468Z,24.30
2018-09-12T06:30:19.452Z,24.80
2018-09-12T06:31:19.457Z,25.24
2018-09-12T06:32:19.465Z,25.72
2018-09-12T06:33:19.436Z,26.17
2018-09-12T06:34:19.457Z,26.40
2018-09-12T06:35:19.392Z,26.91
2018-09-12T06:36:19.461Z,27.39
2018-09-12T06:37:19.448Z,27.81
2018-09-12T06:38:19.399Z,28.27
2018-09-12T06:39:20.420Z,28.67
2018-09-12T06:40:19.400Z,28.90
2018-09-12T06:41:19.322Z,29.18
2018-09-12T06:42:19.368Z,29.27
2018-09-12T06:43:19.385Z,29.43
2018-09-12T06:44:20.333Z,29.42
2018-09-12T06:45:19.291Z,29.58
2018-09-12T06:46:19.295Z,29.70
2018-09-12T06:47:19.799Z,29.87
2018-09-12T06:48:19.271Z,30.02
2018-09-12T06:49:19.291Z,30.07
2018-09-12T06:50:19.234Z,30.24
2018-09-12T06:51:19.241Z,30.20
2018-09-12T06:52:19.201Z,30.13
2018-09-12T06:53:19.215Z,30.17
2018-09-12T06:54:19.210Z,30.31
2018-09-12T06:55:19.195Z,30.47
2018-09-12T06:56:19.172Z,30.49
2018-09-12T06:57:19.152Z,30.49
2018-09-12T06:58:20.159Z,30.38
2018-09-12T06:59:19.178Z,30.31
2018-09-12T07:00:19.117Z,30.31
2018-09-12T07:01:19.112Z,30.26
2018-09-12T07:02:19.120Z,30.19
2018-09-12T07:03:19.112Z,30.04
2018-09-12T07:04:19.151Z,30.11
2018-09-12T07:05:19.063Z,29.98
2018-09-12T07:06:19.055Z,29.83
2018-09-12T07:07:19.042Z,29.65
2018-09-12T07:08:19.039Z,29.65
2018-09-12T07:09:19.018Z,29.46
2018-09-12T07:10:19.011Z,29.37
2018-09-12T07:11:18.997Z,29.36
2018-09-12T07:12:18.993Z,29.43
2018-09-12T07:13:19.011Z,29.46
2018-09-12T07:14:19.074Z,29.09
2018-09-12T07:15:18.951Z,28.80
2018-09-12T07:16:18.948Z,28.58
2018-09-12T07:17:18.932Z,28.49
2018-09-12T07:18:20.035Z,28.48
2018-09-12T07:19:18.921Z,28.41
2018-09-12T07:20:18.937Z,28.25
2018-09-12T07:21:18.892Z,28.31
2018-09-12T07:22:18.879Z,28.14
2018-09-12T07:23:18.904Z,28.17
2018-09-12T07:24:18.917Z,28.07
2018-09-12T07:25:18.891Z,27.92
2018-09-12T07:26:18.830Z,27.96
2018-09-12T07:27:18.832Z,28.00
2018-09-12T07:28:18.859Z,28.12
2018-09-12T07:29:18.850Z,28.14
2018-09-12T07:30:18.800Z,27.88
2018-09-12T07:31:18.832Z,27.75
2018-09-12T07:32:18.798Z,27.66
2018-09-12T07:33:18.827Z,27.59
2018-09-12T07:34:18.866Z,27.41
2018-09-12T07:35:18.767Z,27.34
2018-09-12T07:36:18.727Z,27.36
2018-09-12T07:37:18.717Z,27.29
2018-09-12T07:38:18.794Z,27.39
2018-09-12T07:39:18.710Z,27.36
2018-09-12T07:40:18.683Z,27.36
2018-09-12T07:41:18.697Z,27.19
2018-09-12T07:42:18.663Z,27.17
2018-09-12T07:43:18.690Z,27.02
2018-09-12T07:44:18.674Z,26.88
2018-09-12T07:45:18.632Z,26.70
2018-09-12T07:46:18.618Z,26.63
2018-09-12T07:47:18.598Z,26.63
2018-09-12T07:48:18.594Z,26.62
2018-09-12T07:49:18.623Z,26.70
2018-09-12T07:50:18.586Z,26.69
2018-09-12T07:51:19.583Z,26.66
2018-09-12T07:52:18.572Z,26.40
2018-09-12T07:53:18.546Z,26.28
2018-09-12T07:54:18.582Z,26.13
2018-09-12T07:55:18.590Z,26.15
2018-09-12T07:56:18.674Z,26.12
2018-09-12T07:57:21.328Z,25.98
2018-09-12T07:58:18.480Z,25.91
2018-09-12T07:59:18.472Z,25.95
2018-09-12T08:00:18.542Z,25.98
2018-09-12T08:01:18.494Z,25.91
2018-09-12T08:02:30.249Z,25.91
2018-09-12T08:03:18.588Z,25.87
2018-09-12T08:04:18.586Z,25.83
2018-09-12T08:05:18.561Z,25.61
2018-09-12T08:06:35.531Z,25.52
2018-09-12T08:07:18.555Z,25.24
2018-09-12T08:08:31.148Z,25.23
2018-09-12T08:09:18.676Z,25.21
2018-09-12T08:10:18.665Z,25.06
2018-09-12T08:11:18.503Z,24.99
2018-09-12T08:12:18.660Z,24.87
2018-09-12T08:13:18.401Z,24.83
2018-09-12T08:14:18.310Z,24.83
2018-09-12T08:15:18.327Z,24.84
2018-09-12T08:16:18.300Z,24.85
2018-09-12T08:17:18.288Z,24.73
2018-09-12T08:18:18.263Z,24.62
2018-09-12T08:19:18.254Z,24.58
2018-09-12T08:20:18.298Z,24.58
2018-09-12T08:21:18.229Z,24.55
2018-09-12T08:22:18.286Z,24.55
2018-09-12T08:23:18.266Z,24.61
2018-09-12T08:24:18.200Z,24.58
2018-09-12T08:25:18.216Z,24.62
2018-09-12T08:26:18.359Z,24.67
2018-09-12T08:27:18.212Z,24.55
2018-09-12T08:28:18.162Z,24.81
2018-09-12T08:29:18.154Z,24.84
2018-09-12T08:30:18.135Z,24.88
2018-09-12T08:31:18.112Z,24.68
2018-09-12T08:32:18.116Z,24.85
2018-09-12T08:33:18.130Z,24.80
2018-09-12T08:34:18.089Z,24.71
2018-09-12T08:35:18.075Z,24.81
2018-09-12T08:36:18.103Z,24.76
2018-09-12T08:37:18.135Z,24.80
2018-09-12T08:38:18.074Z,24.84
2018-09-12T08:39:28.710Z,24.85
2018-09-12T08:40:18.164Z,24.84
2018-09-12T08:41:18.106Z,24.84
2018-09-12T08:42:19.099Z,24.88
2018-09-12T08:43:17.990Z,24.95
2018-09-12T08:44:26.953Z,25.08
2018-09-12T08:45:18.324Z,25.09
2018-09-12T08:46:18.038Z,25.10
2018-09-12T08:47:18.451Z,25.15
2018-09-12T08:48:18.001Z,25.17
2018-09-12T08:49:17.905Z,25.13
2018-09-12T08:50:17.996Z,25.09
2018-09-12T08:51:17.916Z,25.10
2018-09-12T08:52:17.897Z,25.17
2018-09-12T08:53:17.926Z,25.20
2018-09-12T08:54:17.855Z,25.17
2018-09-12T08:55:17.840Z,25.25
2018-09-12T08:56:17.877Z,25.28
2018-09-12T08:57:17.877Z,25.35
2018-09-12T08:58:17.822Z,25.32
2018-09-12T08:59:29.193Z,25.28
2018-09-12T09:01:57.314Z,25.30
2018-09-12T09:02:57.127Z,25.27
2018-09-12T09:05:20.102Z,25.10
2018-09-12T09:06:30.458Z,24.99
2018-09-12T09:07:31.364Z,25.08
2018-09-12T09:08:20.145Z,25.08
2018-09-12T09:09:20.014Z,25.02
2018-09-12T09:10:30.566Z,25.03
2018-09-12T09:11:30.757Z,25.09
2018-09-12T09:12:19.910Z,25.14
2018-09-12T09:13:29.738Z,25.14
2018-09-12T09:14:19.929Z,25.18
2018-09-12T09:15:30.314Z,25.15
2018-09-12T09:16:30.637Z,25.09
2018-09-12T09:18:38.305Z,25.05
2018-09-12T09:20:09.346Z,25.06
2018-09-12T09:20:39.186Z,25.08
2018-09-12T09:21:48.951Z,25.05
2018-09-12T09:22:38.283Z,24.98
2018-09-12T09:24:50.254Z,25.06
2018-09-12T09:25:49.947Z,25.02
2018-09-12T09:26:57.937Z,24.99
2018-09-12T09:27:49.300Z,25.00
2018-09-12T09:28:49.202Z,24.98
2018-09-12T09:29:49.804Z,24.85
2018-09-12T09:32:02.363Z,24.85
2018-09-12T09:33:02.312Z,24.90
2018-09-12T09:34:02.293Z,24.95
2018-09-12T09:35:02.710Z,24.91
2018-09-12T09:36:02.365Z,24.98
2018-09-12T09:37:02.166Z,25.00
2018-09-12T09:38:03.160Z,25.08
2018-09-12T09:39:13.041Z,25.06
2018-09-12T09:40:02.354Z,25.09
2018-09-12T09:41:02.245Z,25.03
2018-09-12T09:42:14.098Z,25.06
2018-09-12T09:43:02.247Z,25.10
2018-09-12T09:44:02.281Z,25.03
2018-09-12T09:45:02.335Z,25.20
2018-09-12T09:46:02.096Z,25.30
2018-09-12T09:47:03.258Z,25.39
2018-09-12T09:48:02.161Z,25.36
2018-09-12T09:50:24.972Z,25.38
2018-09-12T09:51:24.965Z,25.46
2018-09-12T09:52:24.898Z,25.60
2018-09-12T09:53:24.977Z,25.58
2018-09-12T09:54:24.797Z,25.61
2018-09-12T09:55:24.743Z,25.67
2018-09-12T09:56:24.743Z,25.58
2018-09-12T09:57:24.746Z,25.60
2018-09-12T09:58:24.754Z,25.70
2018-09-12T09:59:24.731Z,25.72
2018-09-12T10:00:24.756Z,25.77
2018-09-12T10:01:24.669Z,25.67
2018-09-12T10:02:24.732Z,25.72
2018-09-12T10:03:25.253Z,25.65
2018-09-12T10:04:24.660Z,25.64
2018-09-12T10:05:24.660Z,25.75
2018-09-12T10:06:24.623Z,25.72
2018-09-12T10:07:24.634Z,25.69
2018-09-12T10:08:24.670Z,25.72
2018-09-12T10:09:24.614Z,25.77
2018-09-12T10:10:24.566Z,25.72
2018-09-12T10:11:24.615Z,25.77
2018-09-12T10:12:24.548Z,25.80
2018-09-12T10:13:24.552Z,25.79
2018-09-12T10:14:24.571Z,25.94
2018-09-12T10:15:24.510Z,25.99
2018-09-12T10:16:24.499Z,25.95
2018-09-12T10:17:24.490Z,25.82
2018-09-12T10:18:24.505Z,25.82
2018-09-12T10:19:24.472Z,25.82
2018-09-12T10:20:24.506Z,25.94
2018-09-12T10:21:24.451Z,25.94
2018-09-12T10:22:24.444Z,26.07
2018-09-12T10:23:24.460Z,26.15
2018-09-12T10:24:24.554Z,26.10
2018-09-12T10:25:24.404Z,26.10
2018-09-12T10:26:24.395Z,26.02
2018-09-12T10:27:24.416Z,25.92
2018-09-12T10:28:24.421Z,25.97
2018-09-12T10:29:24.354Z,25.97
2018-09-12T10:30:24.348Z,25.91
2018-09-12T10:31:24.363Z,25.70
2018-09-12T10:32:24.376Z,25.85
2018-09-12T10:33:24.372Z,25.79
2018-09-12T10:34:24.304Z,25.76
2018-09-12T10:35:24.322Z,25.70
2018-09-12T10:36:24.287Z,25.65
2018-09-12T10:37:24.260Z,25.75
2018-09-12T10:38:24.291Z,25.82
2018-09-12T10:39:24.274Z,25.99
2018-09-12T10:40:24.233Z,25.94
2018-09-12T10:41:24.235Z,25.90
2018-09-12T10:42:24.215Z,25.92
2018-09-12T10:43:24.264Z,26.09
2018-09-12T10:44:24.188Z,26.07
2018-09-12T10:45:24.177Z,26.07
2018-09-12T10:46:24.189Z,26.09
2018-09-12T10:47:24.172Z,26.09
2018-09-12T10:48:24.158Z,26.13
2018-09-12T10:49:24.158Z,26.18
2018-09-12T10:50:24.171Z,26.12
2018-09-12T10:51:24.110Z,26.17
2018-09-12T10:52:24.097Z,26.33
2018-09-12T10:53:24.098Z,26.35
2018-09-12T10:54:24.080Z,26.35
2018-09-12T10:55:24.116Z,26.36
2018-09-12T10:56:24.065Z,26.28
2018-09-12T10:57:24.049Z,26.36
2018-09-12T10:58:24.042Z,26.44
2018-09-12T10:59:24.029Z,26.57
2018-09-12T11:00:24.016Z,26.67
2018-09-12T11:01:24.049Z,26.55
2018-09-12T11:02:23.989Z,26.54
2018-09-12T11:03:24.020Z,26.57
2018-09-12T11:04:24.025Z,26.70
2018-09-12T11:05:23.992Z,26.85
2018-09-12T11:06:23.943Z,26.82
2018-09-12T11:07:23.940Z,26.87
2018-09-12T11:08:23.932Z,26.89
2018-09-12T11:09:23.919Z,27.04
2018-09-12T11:10:23.896Z,27.10
2018-09-12T11:11:23.909Z,27.14
2018-09-12T11:12:23.909Z,27.22
2018-09-12T11:13:23.887Z,27.34
2018-09-12T11:14:23.851Z,27.43
2018-09-12T11:15:23.901Z,27.51
2018-09-12T11:16:23.824Z,27.44
2018-09-12T11:17:23.824Z,27.50
2018-09-12T11:18:23.844Z,27.41
2018-09-12T11:19:23.803Z,27.46
2018-09-12T11:20:23.810Z,27.39
2018-09-12T11:21:23.778Z,27.25
2018-09-12T11:22:23.814Z,27.36
2018-09-12T11:23:23.772Z,27.37
2018-09-12T11:24:23.754Z,27.36
2018-09-12T11:25:23.733Z,27.28
2018-09-12T11:26:23.719Z,27.40
2018-09-12T11:27:23.716Z,27.47
2018-09-12T11:28:23.712Z,27.60
2018-09-12T11:29:34.132Z,27.46
2018-09-12T11:30:23.816Z,27.49
2018-09-12T11:31:23.793Z,27.47
2018-09-12T11:32:23.728Z,27.43
2018-09-12T11:33:23.871Z,27.40
2018-09-12T11:34:23.691Z,27.46
2018-09-12T11:35:23.631Z,27.44
2018-09-12T11:36:23.609Z,27.46
2018-09-12T11:37:23.622Z,27.46
2018-09-12T11:38:23.611Z,27.40
2018-09-12T11:39:23.582Z,27.32
2018-09-12T11:40:23.565Z,27.34
2018-09-12T11:41:23.578Z,27.32
2018-09-12T11:42:23.544Z,27.39
2018-09-12T11:43:34.069Z,27.54
2018-09-12T11:44:23.710Z,27.75
2018-09-12T11:45:23.617Z,27.84
2018-09-12T11:46:23.603Z,27.97
2018-09-12T11:47:23.642Z,28.06
2018-09-12T11:48:23.531Z,27.99
2018-09-12T11:49:23.465Z,27.93
2018-09-12T11:50:23.491Z,27.99
2018-09-12T11:51:23.450Z,27.97
2018-09-12T11:52:23.615Z,28.09
2018-09-12T11:53:23.831Z,28.09
2018-09-12T11:54:23.406Z,28.19
2018-09-12T11:55:23.443Z,28.25
2018-09-12T11:56:23.412Z,28.34
2018-09-12T11:57:23.424Z,28.43
2018-09-12T11:58:25.374Z,28.33
2018-09-12T12:01:22.009Z,27.97
2018-09-12T12:02:26.416Z,27.97
2018-09-12T12:11:11.150Z,28.76
2018-09-12T12:11:42.857Z,28.83
2018-09-12T12:12:41.695Z,28.61
2018-09-12T12:13:54.354Z,28.52
2018-09-12T12:14:42.322Z,28.52
2018-09-12T12:15:41.825Z,28.44
2018-09-12T12:16:42.316Z,28.52
2018-09-12T12:19:35.359Z,28.54
2018-09-12T12:20:04.313Z,28.62
2018-09-12T12:21:03.789Z,28.66
2018-09-12T12:23:29.027Z,28.78
2018-09-12T12:25:56.961Z,28.67
2018-09-12T12:28:38.881Z,28.92
2018-09-12T12:29:38.489Z,29.09
2018-09-12T12:30:39.244Z,29.24
2018-09-12T12:33:06.750Z,29.19
2018-09-12T12:38:14.743Z,28.86
2018-09-12T12:39:14.394Z,28.89
2018-09-12T12:40:13.341Z,28.80
2018-09-12T12:41:14.184Z,28.78
2018-09-12T12:42:14.441Z,28.93
2018-09-12T12:43:14.840Z,29.02
2018-09-12T12:44:13.082Z,28.96
2018-09-12T12:46:50.144Z,29.16
2018-09-12T12:51:15.809Z,29.46
2018-09-12T12:53:43.282Z,29.80
2018-09-12T12:54:43.356Z,29.67
2018-09-12T12:55:42.572Z,29.92
2018-09-12T12:56:42.521Z,29.94
2018-09-12T12:57:42.507Z,30.01
2018-09-12T13:06:06.140Z,29.43
2018-09-12T13:08:40.234Z,29.63
2018-09-12T13:09:28.322Z,29.65
2018-09-12T13:11:53.108Z,29.67
2018-09-12T13:12:50.945Z,29.71
2018-09-12T13:13:50.536Z,29.83
2018-09-12T13:14:51.522Z,29.76
2018-09-12T13:16:00.121Z,29.67
2018-09-12T13:21:14.713Z,29.97
2018-09-12T13:23:44.003Z,30.11
2018-09-12T13:27:26.715Z,30.10
2018-09-12T13:31:11.813Z,30.10
2018-09-12T13:40:23.727Z,29.53
2018-09-12T13:42:48.793Z,29.43
2018-09-12T13:43:47.750Z,29.48
2018-09-12T13:46:40.940Z,29.39
2018-09-12T13:56:56.474Z,29.64
2018-09-12T13:57:53.706Z,29.36
2018-09-12T13:58:53.083Z,29.39
2018-09-12T13:59:53.794Z,29.42
2018-09-12T14:00:53.816Z,29.39
2018-09-12T14:08:48.709Z,28.83
2018-09-12T14:09:49.199Z,28.88
2018-09-12T14:12:12.381Z,28.86
2018-09-12T14:13:12.340Z,29.14
2018-09-12T14:14:12.862Z,29.16
2018-09-12T14:15:12.669Z,29.14
2018-09-12T14:16:12.592Z,29.09
2018-09-12T14:32:39.456Z,29.57
2018-09-12T14:34:58.126Z,29.43
2018-09-12T14:43:35.059Z,28.77
2018-09-12T14:44:34.958Z,28.80
2018-09-12T14:45:39.512Z,28.89
2018-09-12T14:46:34.679Z,28.92
2018-09-12T14:47:50.390Z,28.96
2018-09-12T14:48:41.229Z,28.89
2018-09-12T14:50:03.420Z,28.95
2018-09-12T14:50:34.826Z,28.92
2018-09-12T14:58:51.940Z,29.15
2018-09-12T15:01:32.220Z,29.24
2018-09-12T15:06:06.784Z,29.16
2018-09-12T15:07:00.801Z,29.23
2018-09-12T15:13:40.073Z,28.98
2018-09-12T15:18:36.492Z,28.92
2018-09-12T15:22:31.337Z,28.90
2018-09-12T15:23:28.925Z,29.02
2018-09-12T15:27:51.281Z,28.68
2018-09-12T15:28:51.549Z,28.56
2018-09-12T15:31:17.190Z,28.58
2018-09-12T15:32:26.480Z,28.54
2018-09-12T15:44:03.015Z,28.58
2018-09-12T15:49:19.409Z,28.44
2018-09-12T15:50:18.916Z,28.41
2018-09-12T15:51:26.679Z,28.40
2018-09-12T16:03:11.588Z,28.24
2018-09-12T16:26:26.645Z,27.27
2018-09-12T16:26:53.985Z,27.25
2018-09-12T16:28:07.602Z,27.10
2018-09-12T16:28:54.524Z,27.12
2018-09-12T16:33:02.114Z,26.70
2018-09-12T16:34:04.573Z,26.69
2018-09-12T16:56:57.673Z,25.57
2018-09-12T17:11:15.457Z,23.85
2018-09-12T17:11:49.962Z,23.72
2018-09-12T17:12:50.057Z,23.72
2018-09-12T17:13:50.674Z,23.53
2018-09-12T17:18:01.397Z,23.05
2018-09-12T17:30:05.374Z,22.17
2018-09-12T17:30:41.367Z,22.05
2018-09-12T17:31:56.653Z,21.98
2018-09-12T17:34:41.808Z,21.71
2018-09-12T17:42:19.561Z,20.99
2018-09-12T17:44:59.064Z,20.76
2018-09-12T17:45:58.891Z,20.74
2018-09-12T17:46:59.646Z,20.59
2018-09-12T17:48:00.571Z,20.55
2018-09-12T17:49:02.682Z,20.55
2018-09-12T23:30:53.194Z,15.92
2018-09-12T23:31:27.704Z,15.87
2018-09-12T23:32:27.522Z,15.89
2018-09-12T23:33:29.118Z,16.01
2018-09-12T23:36:07.960Z,16.01
2018-09-12T23:36:45.087Z,16.05
2018-09-12T23:37:43.491Z,16.01
2018-09-12T23:38:43.901Z,16.05
2018-09-12T23:39:44.264Z,16.08
2018-09-12T23:40:43.279Z,16.05
2018-09-12T23:41:43.420Z,16.12
2018-09-12T23:42:43.509Z,16.08
2018-09-12T23:43:46.232Z,16.07
